createdAt,value
2022-12-26T00:01:24.147Z,2.83
2022-12-26T00:05:06.473Z,2.53
2022-12-26T00:08:48.391Z,2.08
2022-12-26T00:12:30.142Z,2.13
2022-12-26T00:16:18.281Z,2.92
2022-12-26T00:20:00.133Z,2.20
2022-12-26T00:23:42.948Z,2.50
2022-12-26T00:27:24.698Z,2.63
2022-12-26T00:31:08.869Z,1.33
2022-12-26T00:34:50.700Z,1.58
2022-12-26T00:38:33.643Z,0.60
2022-12-26T00:42:15.444Z,1.42
2022-12-26T00:45:57.513Z,0.95
2022-12-26T00:50:12.758Z,1.50
2022-12-26T00:53:41.291Z,1.83
2022-12-26T00:57:23.004Z,2.45
2022-12-26T01:01:12.658Z,1.40
2022-12-26T01:04:54.420Z,1.38
2022-12-26T01:08:36.198Z,1.85
2022-12-26T01:12:17.936Z,1.73
2022-12-26T01:15:59.795Z,2.42
2022-12-26T01:19:41.636Z,1.02
2022-12-26T01:23:23.401Z,1.38
2022-12-26T01:27:05.138Z,1.40
2022-12-26T01:30:46.914Z,0.88
2022-12-26T01:34:28.638Z,2.08
2022-12-26T01:38:10.348Z,1.92
2022-12-26T01:41:52.092Z,1.95
2022-12-26T01:45:33.919Z,1.75
2022-12-26T01:49:32.581Z,1.60
2022-12-26T01:53:27.685Z,2.45
2022-12-26T01:57:26.784Z,1.80
2022-12-26T02:01:09.770Z,1.63
2022-12-26T02:05:11.059Z,1.50
2022-12-26T02:08:53.407Z,1.27
2022-12-26T02:12:38.832Z,1.30
2022-12-26T02:16:21.272Z,1.60
2022-12-26T02:20:24.280Z,1.20
2022-12-26T02:24:43.565Z,1.02
2022-12-26T02:28:59.694Z,0.90
2022-12-26T02:33:06.068Z,1.83
2022-12-26T02:37:02.385Z,1.23
2022-12-26T02:40:46.400Z,1.30
2022-12-26T02:45:00.099Z,1.02
2022-12-26T02:49:04.378Z,1.63
2022-12-26T02:53:29.324Z,1.63
2022-12-26T02:57:37.129Z,1.38
2022-12-26T03:01:53.310Z,1.17
2022-12-26T03:06:19.893Z,2.28
2022-12-26T03:10:25.078Z,2.47
2022-12-26T03:14:16.225Z,2.50
2022-12-26T03:18:03.998Z,3.13
2022-12-26T03:21:47.409Z,3.05
2022-12-26T03:26:17.534Z,3.65
2022-12-26T03:30:18.010Z,2.30
2022-12-26T03:34:19.020Z,1.83
2022-12-26T03:38:10.240Z,1.25
2022-12-26T03:42:10.617Z,1.00
2022-12-26T03:46:36.945Z,1.02
2022-12-26T03:50:51.403Z,0.73
2022-12-26T03:55:01.415Z,0.70
2022-12-26T03:59:29.631Z,0.70
2022-12-26T04:03:32.586Z,0.40
2022-12-26T04:07:55.836Z,0.93
2022-12-26T04:12:02.668Z,0.70
2022-12-26T04:16:06.327Z,0.30
2022-12-26T04:20:00.461Z,0.32
2022-12-26T04:24:05.599Z,0.43
2022-12-26T04:28:06.299Z,0.57
2022-12-26T04:32:20.030Z,0.50
2022-12-26T04:36:31.094Z,0.60
2022-12-26T04:40:37.112Z,0.65
2022-12-26T04:44:24.355Z,0.63
2022-12-26T04:48:24.922Z,0.40
2022-12-26T04:52:09.851Z,0.55
2022-12-26T04:55:51.624Z,0.40
2022-12-26T04:59:33.894Z,0.85
2022-12-26T05:03:34.656Z,0.30
2022-12-26T05:07:40.447Z,0.50
2022-12-26T05:11:22.519Z,0.80
2022-12-26T05:15:04.608Z,1.00
2022-12-26T05:19:05.201Z,0.60
2022-12-26T05:23:05.783Z,0.80
2022-12-26T05:27:06.194Z,0.80
2022-12-26T05:30:48.024Z,0.70
2022-12-26T05:34:29.810Z,0.60
2022-12-26T05:38:11.836Z,0.68
2022-12-26T05:41:53.942Z,0.70
2022-12-26T05:45:35.649Z,1.15
2022-12-26T05:49:17.427Z,0.93
2022-12-26T05:52:59.863Z,0.93
2022-12-26T05:56:45.891Z,1.10
2022-12-26T06:00:31.237Z,0.98
2022-12-26T06:04:13.003Z,0.95
2022-12-26T06:07:54.843Z,1.02
2022-12-26T06:11:36.582Z,1.00
2022-12-26T06:15:18.425Z,0.80
2022-12-26T06:19:00.198Z,1.00
2022-12-26T06:22:42.066Z,1.10
2022-12-26T06:26:23.841Z,0.70
2022-12-26T06:30:06.043Z,1.00
2022-12-26T06:33:52.374Z,1.23
2022-12-26T06:37:34.434Z,1.33
2022-12-26T06:41:18.968Z,1.92
2022-12-26T06:45:00.740Z,1.25
2022-12-26T06:48:42.775Z,1.60
2022-12-26T06:52:24.519Z,1.90
2022-12-26T06:56:12.212Z,1.63
2022-12-26T06:59:54.059Z,1.75
2022-12-26T07:03:36.349Z,1.73
2022-12-26T07:07:18.100Z,1.80
2022-12-26T07:11:00.118Z,1.70
2022-12-26T07:14:41.864Z,2.30
2022-12-26T07:18:23.600Z,1.98
2022-12-26T07:22:05.404Z,2.00
2022-12-26T07:25:48.798Z,2.40
2022-12-26T07:29:30.518Z,1.70
2022-12-26T07:33:12.256Z,2.08
2022-12-26T07:36:54.059Z,1.80
2022-12-26T07:40:35.858Z,1.73
2022-12-26T07:44:17.648Z,1.67
2022-12-26T07:47:59.473Z,1.75
2022-12-26T07:51:42.234Z,1.80
2022-12-26T07:55:24.029Z,1.75
2022-12-26T07:59:05.888Z,1.80
2022-12-26T08:02:49.654Z,1.88
2022-12-26T08:06:31.718Z,2.10
2022-12-26T08:10:13.454Z,2.30
2022-12-26T08:13:55.265Z,2.42
2022-12-26T08:17:37.097Z,3.47
2022-12-26T08:21:18.803Z,4.03
2022-12-26T08:25:00.600Z,3.47
2022-12-26T08:28:42.368Z,3.15
2022-12-26T08:32:24.740Z,2.85
2022-12-26T08:36:09.107Z,3.35
2022-12-26T08:39:53.512Z,3.85
2022-12-26T08:47:37.812Z,3.33
2022-12-26T08:51:23.178Z,2.67
2022-12-26T08:55:05.347Z,3.65
2022-12-26T08:58:47.725Z,3.90
2022-12-26T09:02:29.768Z,4.00
2022-12-26T09:06:13.727Z,4.05
2022-12-26T09:09:55.517Z,4.65
2022-12-26T09:13:37.613Z,4.10
2022-12-26T09:17:20.882Z,3.63
2022-12-26T09:21:04.401Z,3.42
2022-12-26T09:24:46.225Z,3.47
2022-12-26T09:28:27.968Z,3.95
2022-12-26T09:32:09.725Z,3.78
2022-12-26T09:35:51.493Z,3.35
2022-12-26T09:39:33.385Z,2.97
2022-12-26T09:43:49.948Z,3.92
2022-12-26T09:47:40.196Z,3.28
2022-12-26T09:51:22.301Z,3.03
2022-12-26T09:55:16.492Z,2.35
2022-12-26T09:59:05.612Z,2.80
2022-12-26T10:02:54.442Z,2.97
2022-12-26T10:06:38.355Z,2.90
2022-12-26T10:10:31.081Z,3.08
2022-12-26T10:14:32.512Z,3.08
2022-12-26T10:18:35.323Z,2.65
2022-12-26T10:22:42.095Z,2.55
2022-12-26T10:26:30.316Z,2.40
2022-12-26T10:30:21.577Z,2.47
2022-12-26T10:34:17.086Z,2.05
2022-12-26T10:38:05.128Z,2.10
2022-12-26T10:41:51.140Z,2.05
2022-12-26T10:45:43.371Z,1.77
2022-12-26T10:49:27.103Z,1.77
2022-12-26T10:53:12.556Z,1.77
2022-12-26T10:56:56.710Z,1.70
2022-12-26T11:00:38.611Z,2.17
2022-12-26T11:05:10.035Z,1.60
2022-12-26T11:08:40.760Z,1.73
2022-12-26T11:12:43.299Z,1.42
2022-12-26T11:16:38.331Z,0.82
2022-12-26T11:20:21.327Z,1.65
2022-12-26T11:24:09.223Z,1.70
2022-12-26T11:27:56.879Z,1.23
2022-12-26T11:31:41.604Z,0.98
2022-12-26T11:35:26.613Z,1.05
2022-12-26T11:39:22.616Z,1.05
2022-12-26T11:43:07.951Z,1.48
2022-12-26T11:47:07.715Z,1.40
2022-12-26T11:50:50.152Z,0.95
2022-12-26T11:54:46.883Z,1.15
2022-12-26T11:58:31.049Z,0.98
2022-12-26T12:02:29.450Z,1.42
2022-12-26T12:06:40.402Z,1.00
2022-12-26T12:10:28.185Z,0.80
2022-12-26T12:14:33.661Z,1.20
2022-12-26T12:18:26.658Z,0.73
2022-12-26T12:22:22.196Z,0.82
2022-12-26T12:26:09.508Z,1.58
2022-12-26T12:34:31.984Z,0.50
2022-12-26T12:38:31.124Z,0.80
2022-12-26T12:42:34.888Z,1.00
2022-12-26T12:46:37.539Z,0.80
2022-12-26T12:50:51.709Z,0.82
2022-12-26T12:55:10.844Z,1.10
2022-12-26T12:59:27.881Z,1.17
2022-12-26T13:07:02.298Z,0.75
2022-12-26T13:10:55.989Z,0.57
2022-12-26T13:14:49.334Z,0.75
2022-12-26T13:18:38.904Z,0.88
2022-12-26T13:22:53.238Z,0.80
2022-12-26T13:26:48.811Z,0.73
2022-12-26T13:30:31.604Z,0.82
2022-12-26T13:34:18.502Z,1.40
2022-12-26T13:38:00.272Z,1.20
2022-12-26T13:42:14.507Z,1.27
2022-12-26T13:45:57.950Z,1.35
2022-12-26T13:49:41.658Z,1.33
2022-12-26T13:53:31.255Z,1.20
2022-12-26T13:57:37.652Z,1.20
2022-12-26T14:01:28.488Z,0.80
2022-12-26T14:05:19.600Z,0.32
2022-12-26T14:09:33.148Z,0.35
2022-12-26T14:13:39.751Z,0.80
2022-12-26T14:17:51.273Z,0.90
2022-12-26T14:21:54.890Z,1.50
2022-12-26T14:26:10.912Z,1.35
2022-12-26T14:30:19.610Z,1.27
2022-12-26T14:34:23.403Z,0.82
2022-12-26T14:38:31.016Z,1.10
2022-12-26T14:42:40.795Z,2.00
2022-12-26T14:46:31.629Z,1.73
2022-12-26T14:50:35.176Z,1.58
2022-12-26T14:54:22.341Z,1.00
2022-12-26T14:58:27.583Z,1.17
2022-12-26T15:02:12.212Z,1.30
2022-12-26T15:06:15.225Z,1.17
2022-12-26T15:10:34.610Z,0.70
2022-12-26T15:14:31.024Z,0.50
2022-12-26T15:18:30.920Z,0.83
2022-12-26T15:22:40.519Z,1.67
2022-12-26T15:26:50.722Z,0.60
2022-12-26T15:31:11.010Z,0.57
2022-12-26T15:35:00.657Z,0.73
2022-12-26T15:39:01.756Z,0.75
2022-12-26T15:43:04.033Z,0.50
2022-12-26T15:47:18.385Z,0.75
2022-12-26T15:51:07.938Z,1.52
2022-12-26T15:55:10.494Z,1.10
2022-12-26T15:59:14.095Z,2.15
2022-12-26T16:03:07.904Z,1.55
2022-12-26T16:07:07.619Z,0.90
2022-12-26T16:10:55.648Z,1.33
2022-12-26T16:14:39.570Z,0.82
2022-12-26T16:18:25.912Z,0.90
2022-12-26T16:22:33.206Z,1.17
2022-12-26T16:26:26.100Z,0.88
2022-12-26T16:30:17.634Z,0.77
2022-12-26T16:34:00.529Z,2.33
2022-12-26T16:37:43.453Z,1.40
2022-12-26T16:41:31.537Z,1.00
2022-12-26T16:45:20.593Z,0.93
2022-12-26T16:49:02.799Z,1.40
2022-12-26T16:52:46.931Z,1.45
2022-12-26T16:56:34.136Z,1.40
2022-12-26T17:00:20.468Z,2.35
2022-12-26T17:04:22.536Z,1.63
2022-12-26T17:08:05.654Z,1.80
2022-12-26T17:11:56.450Z,2.22
2022-12-26T17:15:57.903Z,2.42
2022-12-26T17:19:39.816Z,1.83
2022-12-26T17:23:35.471Z,1.55
2022-12-26T17:27:20.633Z,5.68
2022-12-26T17:31:38.379Z,3.13
2022-12-26T17:35:25.495Z,2.55
2022-12-26T17:39:20.769Z,2.03
2022-12-26T17:43:23.096Z,4.15
2022-12-26T17:47:21.955Z,5.22
2022-12-26T17:51:06.391Z,4.53
2022-12-26T17:54:49.740Z,3.00
2022-12-26T17:58:32.000Z,2.85
2022-12-26T18:02:13.970Z,2.55
2022-12-26T18:05:56.477Z,2.38
2022-12-26T18:09:38.341Z,2.78
2022-12-26T18:13:20.105Z,2.10
2022-12-26T18:17:02.759Z,2.00
2022-12-26T18:20:44.507Z,3.03
2022-12-26T18:24:26.344Z,2.95
2022-12-26T18:28:12.514Z,2.83
2022-12-26T18:31:54.313Z,2.35
2022-12-26T18:35:37.332Z,2.75
2022-12-26T18:39:19.165Z,2.88
2022-12-26T18:43:01.983Z,3.28
2022-12-26T18:46:43.731Z,2.47
2022-12-26T18:50:26.052Z,2.25
2022-12-26T18:54:07.840Z,2.25
2022-12-26T18:57:49.737Z,2.30
2022-12-26T19:01:31.629Z,2.30
2022-12-26T19:05:22.061Z,3.20
2022-12-26T19:09:03.898Z,3.08
2022-12-26T19:12:45.930Z,3.05
2022-12-26T19:16:27.717Z,3.17
2022-12-26T19:20:21.677Z,2.88
2022-12-26T19:24:03.528Z,2.70
2022-12-26T19:27:46.045Z,2.45
2022-12-26T19:31:27.829Z,2.25
2022-12-26T19:35:10.706Z,2.30
2022-12-26T19:38:54.208Z,2.40
2022-12-26T19:42:37.400Z,2.22
2022-12-26T19:46:19.286Z,1.92
2022-12-26T19:50:01.453Z,2.38
2022-12-26T19:53:44.571Z,2.00
2022-12-26T19:57:26.369Z,2.17
2022-12-26T20:01:14.390Z,2.28
2022-12-26T20:04:56.414Z,1.95
2022-12-26T20:08:38.573Z,2.28
2022-12-26T20:12:20.407Z,1.90
2022-12-26T20:16:04.383Z,1.88
2022-12-26T20:19:47.480Z,1.63
2022-12-26T20:23:29.228Z,2.50
2022-12-26T20:27:11.014Z,1.77
2022-12-26T20:31:09.108Z,1.60
2022-12-26T20:34:54.691Z,1.50
2022-12-26T20:38:37.312Z,1.40
2022-12-26T20:42:19.605Z,1.42
2022-12-26T20:46:09.505Z,1.80
2022-12-26T20:49:51.285Z,1.83
2022-12-26T20:53:33.833Z,1.70
2022-12-26T20:57:15.604Z,1.75
2022-12-26T21:01:02.837Z,1.70
2022-12-26T21:04:44.617Z,1.45
2022-12-26T21:08:26.352Z,1.63
2022-12-26T21:12:08.117Z,1.80
2022-12-26T21:15:49.856Z,1.80
2022-12-26T21:19:31.636Z,1.50
2022-12-26T21:23:13.404Z,1.52
2022-12-26T21:26:55.342Z,1.40
2022-12-26T21:30:37.220Z,1.75
2022-12-26T21:34:21.127Z,1.70
2022-12-26T21:38:02.915Z,2.03
2022-12-26T21:41:44.666Z,1.88
2022-12-26T21:45:26.899Z,2.05
2022-12-26T21:49:08.802Z,2.28
2022-12-26T21:52:50.558Z,2.00
2022-12-26T21:56:32.294Z,2.20
2022-12-26T22:00:14.625Z,2.83
2022-12-26T22:04:15.282Z,2.90
2022-12-26T22:07:59.392Z,2.30
2022-12-26T22:11:59.610Z,2.40
2022-12-26T22:16:07.163Z,2.22
2022-12-26T22:19:49.035Z,2.10
2022-12-26T22:23:30.824Z,2.15
2022-12-26T22:27:12.577Z,2.05
2022-12-26T22:30:54.407Z,2.65
2022-12-26T22:34:36.228Z,3.22
2022-12-26T22:38:18.530Z,2.83
2022-12-26T22:42:02.508Z,2.50
2022-12-26T22:45:44.516Z,2.67
2022-12-26T22:49:26.534Z,2.42
2022-12-26T22:53:08.256Z,2.13
2022-12-26T22:56:49.991Z,2.42
2022-12-26T23:00:31.740Z,2.60
2022-12-26T23:04:13.934Z,2.78
2022-12-26T23:07:55.968Z,3.33
2022-12-26T23:11:38.223Z,2.20
2022-12-26T23:15:23.232Z,2.53
2022-12-26T23:19:38.940Z,3.15
2022-12-26T23:23:21.520Z,2.17
2022-12-26T23:27:27.863Z,2.53
2022-12-26T23:31:09.765Z,2.60
2022-12-26T23:34:51.534Z,2.45
2022-12-26T23:38:33.396Z,2.45
2022-12-26T23:42:15.170Z,2.38
2022-12-26T23:45:57.187Z,2.40
2022-12-26T23:49:38.928Z,2.53
2022-12-26T23:53:20.689Z,2.80
2022-12-26T23:57:02.498Z,2.50
